sensor_id;sensor_type;location;lat;lon;timestamp;P1;durP1;ratioP1;P2;durP2;ratioP2
75858;SDS011;64504;51.308;8.620;2022-12-24T00:02:10;12.70;;;3.85;;
75858;SDS011;64504;51.308;8.620;2022-12-24T00:04:36;3.00;;;2.05;;
75858;SDS011;64504;51.308;8.620;2022-12-24T00:07:02;1.52;;;1.38;;
75858;SDS011;64504;51.308;8.620;2022-12-24T00:09:28;8.35;;;1.38;;
75858;SDS011;64504;51.308;8.620;2022-12-24T00:11:53;2.90;;;1.50;;
75858;SDS011;64504;51.308;8.620;2022-12-24T00:14:19;1.88;;;1.33;;
75858;SDS011;64504;51.308;8.620;2022-12-24T00:16:44;3.95;;;1.73;;
75858;SDS011;64504;51.308;8.620;2022-12-24T00:19:11;5.50;;;1.63;;
75858;SDS011;64504;51.308;8.620;2022-12-24T00:21:38;7.20;;;2.95;;
75858;SDS011;64504;51.308;8.620;2022-12-24T00:24:03;6.38;;;1.77;;
75858;SDS011;64504;51.308;8.620;2022-12-24T00:26:30;3.25;;;1.88;;
75858;SDS011;64504;51.308;8.620;2022-12-24T00:28:57;1.60;;;1.50;;
75858;SDS011;64504;51.308;8.620;2022-12-24T00:31:22;1.50;;;1.38;;
75858;SDS011;64504;51.308;8.620;2022-12-24T00:33:48;2.78;;;1.38;;
75858;SDS011;64504;51.308;8.620;2022-12-24T00:36:14;3.75;;;1.52;;
75858;SDS011;64504;51.308;8.620;2022-12-24T00:38:40;5.85;;;1.83;;
75858;SDS011;64504;51.308;8.620;2022-12-24T00:41:06;6.40;;;2.88;;
75858;SDS011;64504;51.308;8.620;2022-12-24T00:43:52;4.60;;;2.33;;
75858;SDS011;64504;51.308;8.620;2022-12-24T00:46:18;12.05;;;3.53;;
75858;SDS011;64504;51.308;8.620;2022-12-24T00:48:44;5.60;;;2.90;;
75858;SDS011;64504;51.308;8.620;2022-12-24T00:51:09;16.13;;;3.13;;
75858;SDS011;64504;51.308;8.620;2022-12-24T00:53:35;8.30;;;2.95;;
75858;SDS011;64504;51.308;8.620;2022-12-24T00:56:00;6.50;;;2.83;;
75858;SDS011;64504;51.308;8.620;2022-12-24T00:58:26;6.78;;;2.72;;
75858;SDS011;64504;51.308;8.620;2022-12-24T01:00:51;14.25;;;2.72;;
75858;SDS011;64504;51.308;8.620;2022-12-24T01:03:17;13.68;;;3.50;;
75858;SDS011;64504;51.308;8.620;2022-12-24T01:05:42;6.30;;;2.58;;
75858;SDS011;64504;51.308;8.620;2022-12-24T01:08:09;14.55;;;4.10;;
75858;SDS011;64504;51.308;8.620;2022-12-24T01:10:34;13.57;;;2.95;;
75858;SDS011;64504;51.308;8.620;2022-12-24T01:13:00;13.50;;;3.65;;
75858;SDS011;64504;51.308;8.620;2022-12-24T01:15:27;11.77;;;5.00;;
75858;SDS011;64504;51.308;8.620;2022-12-24T01:17:52;9.38;;;4.60;;
75858;SDS011;64504;51.308;8.620;2022-12-24T01:20:18;5.72;;;3.28;;
75858;SDS011;64504;51.308;8.620;2022-12-24T01:22:43;12.15;;;3.92;;
75858;SDS011;64504;51.308;8.620;2022-12-24T01:25:09;4.18;;;3.50;;
75858;SDS011;64504;51.308;8.620;2022-12-24T01:27:35;5.80;;;3.22;;
75858;SDS011;64504;51.308;8.620;2022-12-24T01:30:00;11.55;;;4.10;;
75858;SDS011;64504;51.308;8.620;2022-12-24T01:32:26;2.95;;;2.72;;
75858;SDS011;64504;51.308;8.620;2022-12-24T01:34:53;9.27;;;3.88;;
75858;SDS011;64504;51.308;8.620;2022-12-24T01:37:19;5.15;;;2.60;;
75858;SDS011;64504;51.308;8.620;2022-12-24T01:39:44;3.70;;;3.33;;
75858;SDS011;64504;51.308;8.620;2022-12-24T01:42:17;12.77;;;3.53;;
75858;SDS011;64504;51.308;8.620;2022-12-24T01:48:51;13.30;;;4.85;;
75858;SDS011;64504;51.308;8.620;2022-12-24T01:51:02;10.93;;;3.13;;
75858;SDS011;64504;51.308;8.620;2022-12-24T01:53:48;14.52;;;3.85;;
75858;SDS011;64504;51.308;8.620;2022-12-24T01:56:18;11.77;;;3.85;;
75858;SDS011;64504;51.308;8.620;2022-12-24T01:58:45;14.82;;;5.07;;
75858;SDS011;64504;51.308;8.620;2022-12-24T02:01:14;24.90;;;4.85;;
75858;SDS011;64504;51.308;8.620;2022-12-24T02:03:39;10.85;;;4.63;;
75858;SDS011;64504;51.308;8.620;2022-12-24T02:06:05;7.50;;;3.88;;
75858;SDS011;64504;51.308;8.620;2022-12-24T02:08:32;15.15;;;6.18;;
75858;SDS011;64504;51.308;8.620;2022-12-24T02:11:10;17.83;;;4.80;;
75858;SDS011;64504;51.308;8.620;2022-12-24T02:13:41;12.63;;;4.90;;
75858;SDS011;64504;51.308;8.620;2022-12-24T02:16:28;12.70;;;3.90;;
75858;SDS011;64504;51.308;8.620;2022-12-24T02:33:31;14.20;;;3.83;;
75858;SDS011;64504;51.308;8.620;2022-12-24T02:36:33;6.38;;;3.45;;
75858;SDS011;64504;51.308;8.620;2022-12-24T02:39:02;11.88;;;4.68;;
75858;SDS011;64504;51.308;8.620;2022-12-24T02:41:32;13.00;;;4.55;;
75858;SDS011;64504;51.308;8.620;2022-12-24T02:44:19;12.90;;;5.55;;
75858;SDS011;64504;51.308;8.620;2022-12-24T02:46:47;17.10;;;5.85;;
75858;SDS011;64504;51.308;8.620;2022-12-24T02:49:13;11.25;;;5.82;;
75858;SDS011;64504;51.308;8.620;2022-12-24T02:51:38;12.38;;;4.60;;
75858;SDS011;64504;51.308;8.620;2022-12-24T02:54:04;17.70;;;5.60;;
75858;SDS011;64504;51.308;8.620;2022-12-24T03:04:56;7.45;;;4.40;;
75858;SDS011;64504;51.308;8.620;2022-12-24T03:07:27;16.83;;;5.45;;
75858;SDS011;64504;51.308;8.620;2022-12-24T03:10:01;10.55;;;4.82;;
75858;SDS011;64504;51.308;8.620;2022-12-24T03:12:48;17.88;;;4.80;;
75858;SDS011;64504;51.308;8.620;2022-12-24T03:15:15;19.80;;;5.88;;
75858;SDS011;64504;51.308;8.620;2022-12-24T03:17:44;17.13;;;5.97;;
75858;SDS011;64504;51.308;8.620;2022-12-24T03:20:11;16.63;;;5.53;;
75858;SDS011;64504;51.308;8.620;2022-12-24T03:22:37;17.67;;;6.68;;
75858;SDS011;64504;51.308;8.620;2022-12-24T03:25:03;14.35;;;5.68;;
75858;SDS011;64504;51.308;8.620;2022-12-24T03:27:30;14.55;;;4.68;;
75858;SDS011;64504;51.308;8.620;2022-12-24T03:29:56;14.32;;;7.22;;
75858;SDS011;64504;51.308;8.620;2022-12-24T03:32:23;16.38;;;5.38;;
75858;SDS011;64504;51.308;8.620;2022-12-24T03:34:50;10.73;;;4.38;;
75858;SDS011;64504;51.308;8.620;2022-12-24T03:37:16;6.10;;;3.78;;
75858;SDS011;64504;51.308;8.620;2022-12-24T03:39:43;19.98;;;5.82;;
75858;SDS011;64504;51.308;8.620;2022-12-24T03:42:09;12.65;;;4.60;;
75858;SDS011;64504;51.308;8.620;2022-12-24T03:44:36;23.02;;;5.18;;
75858;SDS011;64504;51.308;8.620;2022-12-24T03:47:01;8.18;;;3.30;;
75858;SDS011;64504;51.308;8.620;2022-12-24T03:49:28;20.85;;;4.43;;
75858;SDS011;64504;51.308;8.620;2022-12-24T03:51:54;7.30;;;4.22;;
75858;SDS011;64504;51.308;8.620;2022-12-24T03:54:19;17.48;;;4.43;;
75858;SDS011;64504;51.308;8.620;2022-12-24T03:56:45;12.32;;;3.83;;
75858;SDS011;64504;51.308;8.620;2022-12-24T03:59:10;11.50;;;2.75;;
75858;SDS011;64504;51.308;8.620;2022-12-24T04:01:36;14.45;;;4.40;;
75858;SDS011;64504;51.308;8.620;2022-12-24T04:04:01;12.23;;;5.65;;
75858;SDS011;64504;51.308;8.620;2022-12-24T04:06:27;12.60;;;5.13;;
75858;SDS011;64504;51.308;8.620;2022-12-24T04:08:52;17.65;;;5.20;;
75858;SDS011;64504;51.308;8.620;2022-12-24T04:11:18;22.92;;;6.05;;
75858;SDS011;64504;51.308;8.620;2022-12-24T04:13:43;15.75;;;5.20;;
75858;SDS011;64504;51.308;8.620;2022-12-24T04:16:13;17.10;;;6.25;;
75858;SDS011;64504;51.308;8.620;2022-12-24T04:18:39;6.20;;;4.28;;
75858;SDS011;64504;51.308;8.620;2022-12-24T04:21:06;12.48;;;4.90;;
75858;SDS011;64504;51.308;8.620;2022-12-24T04:23:32;22.25;;;5.70;;
75858;SDS011;64504;51.308;8.620;2022-12-24T04:25:59;22.38;;;4.95;;
75858;SDS011;64504;51.308;8.620;2022-12-24T04:28:25;21.63;;;4.75;;
75858;SDS011;64504;51.308;8.620;2022-12-24T04:30:56;8.07;;;3.05;;
75858;SDS011;64504;51.308;8.620;2022-12-24T04:33:22;30.98;;;6.00;;
75858;SDS011;64504;51.308;8.620;2022-12-24T04:35:48;11.65;;;4.90;;
75858;SDS011;64504;51.308;8.620;2022-12-24T04:38:13;15.95;;;5.40;;
75858;SDS011;64504;51.308;8.620;2022-12-24T04:40:38;14.23;;;5.82;;
75858;SDS011;64504;51.308;8.620;2022-12-24T04:43:04;26.83;;;5.05;;
75858;SDS011;64504;51.308;8.620;2022-12-24T04:45:30;19.95;;;4.72;;
75858;SDS011;64504;51.308;8.620;2022-12-24T04:47:58;20.55;;;5.35;;
75858;SDS011;64504;51.308;8.620;2022-12-24T04:50:24;14.93;;;4.38;;
75858;SDS011;64504;51.308;8.620;2022-12-24T04:52:49;11.75;;;3.55;;
75858;SDS011;64504;51.308;8.620;2022-12-24T04:55:14;21.60;;;5.55;;
75858;SDS011;64504;51.308;8.620;2022-12-24T04:57:41;12.50;;;5.40;;
75858;SDS011;64504;51.308;8.620;2022-12-24T05:00:07;16.38;;;5.75;;
75858;SDS011;64504;51.308;8.620;2022-12-24T05:02:34;20.73;;;5.78;;
75858;SDS011;64504;51.308;8.620;2022-12-24T05:04:59;18.27;;;4.88;;
75858;SDS011;64504;51.308;8.620;2022-12-24T05:07:26;32.88;;;5.78;;
75858;SDS011;64504;51.308;8.620;2022-12-24T05:09:54;8.50;;;4.50;;
75858;SDS011;64504;51.308;8.620;2022-12-24T05:12:20;14.57;;;5.75;;
75858;SDS011;64504;51.308;8.620;2022-12-24T05:14:45;21.33;;;5.75;;
75858;SDS011;64504;51.308;8.620;2022-12-24T05:17:11;20.40;;;5.85;;
75858;SDS011;64504;51.308;8.620;2022-12-24T05:19:36;26.30;;;6.07;;
75858;SDS011;64504;51.308;8.620;2022-12-24T05:22:01;17.10;;;5.20;;
75858;SDS011;64504;51.308;8.620;2022-12-24T05:24:45;15.23;;;3.58;;
75858;SDS011;64504;51.308;8.620;2022-12-24T05:27:30;18.10;;;3.95;;
75858;SDS011;64504;51.308;8.620;2022-12-24T05:29:55;20.35;;;5.97;;
75858;SDS011;64504;51.308;8.620;2022-12-24T05:32:21;15.05;;;4.10;;
75858;SDS011;64504;51.308;8.620;2022-12-24T05:34:46;22.83;;;4.85;;
75858;SDS011;64504;51.308;8.620;2022-12-24T05:37:12;13.57;;;5.25;;
75858;SDS011;64504;51.308;8.620;2022-12-24T05:39:37;12.88;;;4.10;;
75858;SDS011;64504;51.308;8.620;2022-12-24T05:42:03;21.13;;;5.35;;
75858;SDS011;64504;51.308;8.620;2022-12-24T05:44:28;10.60;;;2.70;;
75858;SDS011;64504;51.308;8.620;2022-12-24T05:46:54;20.52;;;4.63;;
75858;SDS011;64504;51.308;8.620;2022-12-24T05:49:19;19.00;;;4.53;;
75858;SDS011;64504;51.308;8.620;2022-12-24T05:51:45;14.38;;;4.57;;
75858;SDS011;64504;51.308;8.620;2022-12-24T05:54:10;7.15;;;4.32;;
75858;SDS011;64504;51.308;8.620;2022-12-24T05:56:36;5.20;;;3.42;;
75858;SDS011;64504;51.308;8.620;2022-12-24T05:59:01;10.57;;;4.05;;
75858;SDS011;64504;51.308;8.620;2022-12-24T06:01:27;11.73;;;3.40;;
75858;SDS011;64504;51.308;8.620;2022-12-24T06:03:52;14.40;;;4.43;;
75858;SDS011;64504;51.308;8.620;2022-12-24T06:06:22;9.07;;;5.15;;
75858;SDS011;64504;51.308;8.620;2022-12-24T06:08:49;16.98;;;3.50;;
75858;SDS011;64504;51.308;8.620;2022-12-24T06:11:16;7.28;;;3.97;;
75858;SDS011;64504;51.308;8.620;2022-12-24T06:13:44;12.35;;;3.38;;
75858;SDS011;64504;51.308;8.620;2022-12-24T06:16:11;7.35;;;3.88;;
75858;SDS011;64504;51.308;8.620;2022-12-24T06:18:38;23.83;;;4.65;;
75858;SDS011;64504;51.308;8.620;2022-12-24T06:21:04;10.05;;;3.97;;
75858;SDS011;64504;51.308;8.620;2022-12-24T06:23:31;13.75;;;4.93;;
75858;SDS011;64504;51.308;8.620;2022-12-24T06:25:59;10.40;;;4.53;;
75858;SDS011;64504;51.308;8.620;2022-12-24T06:28:25;4.85;;;3.50;;
75858;SDS011;64504;51.308;8.620;2022-12-24T06:30:52;15.20;;;3.72;;
75858;SDS011;64504;51.308;8.620;2022-12-24T06:33:18;14.18;;;4.32;;
75858;SDS011;64504;51.308;8.620;2022-12-24T06:35:44;16.67;;;4.60;;
75858;SDS011;64504;51.308;8.620;2022-12-24T06:38:10;11.02;;;4.07;;
75858;SDS011;64504;51.308;8.620;2022-12-24T06:40:39;8.85;;;3.55;;
75858;SDS011;64504;51.308;8.620;2022-12-24T06:43:06;9.77;;;2.67;;
75858;SDS011;64504;51.308;8.620;2022-12-24T06:45:31;8.93;;;3.00;;
75858;SDS011;64504;51.308;8.620;2022-12-24T06:47:58;11.27;;;3.22;;
75858;SDS011;64504;51.308;8.620;2022-12-24T06:50:24;14.90;;;3.97;;
75858;SDS011;64504;51.308;8.620;2022-12-24T06:52:49;5.60;;;3.13;;
75858;SDS011;64504;51.308;8.620;2022-12-24T06:55:15;9.13;;;3.13;;
75858;SDS011;64504;51.308;8.620;2022-12-24T06:57:40;3.15;;;2.78;;
75858;SDS011;64504;51.308;8.620;2022-12-24T07:00:06;12.75;;;4.63;;
75858;SDS011;64504;51.308;8.620;2022-12-24T07:02:40;13.15;;;4.00;;
75858;SDS011;64504;51.308;8.620;2022-12-24T07:05:06;13.00;;;3.28;;
75858;SDS011;64504;51.308;8.620;2022-12-24T07:07:37;7.93;;;3.33;;
75858;SDS011;64504;51.308;8.620;2022-12-24T07:10:04;6.53;;;2.35;;
75858;SDS011;64504;51.308;8.620;2022-12-24T07:12:31;4.10;;;3.80;;
75858;SDS011;64504;51.308;8.620;2022-12-24T07:14:56;5.20;;;2.97;;
75858;SDS011;64504;51.308;8.620;2022-12-24T07:17:22;12.07;;;2.92;;
75858;SDS011;64504;51.308;8.620;2022-12-24T07:19:47;7.82;;;3.08;;
75858;SDS011;64504;51.308;8.620;2022-12-24T07:22:13;15.30;;;4.43;;
75858;SDS011;64504;51.308;8.620;2022-12-24T07:24:38;5.70;;;2.88;;
75858;SDS011;64504;51.308;8.620;2022-12-24T07:27:04;6.78;;;2.70;;
75858;SDS011;64504;51.308;8.620;2022-12-24T07:29:30;5.50;;;2.85;;
75858;SDS011;64504;51.308;8.620;2022-12-24T07:31:55;8.30;;;3.20;;
75858;SDS011;64504;51.308;8.620;2022-12-24T07:34:21;14.57;;;4.45;;
75858;SDS011;64504;51.308;8.620;2022-12-24T07:36:48;10.82;;;3.65;;
75858;SDS011;64504;51.308;8.620;2022-12-24T07:39:14;10.18;;;4.88;;
75858;SDS011;64504;51.308;8.620;2022-12-24T07:41:39;5.47;;;4.07;;
75858;SDS011;64504;51.308;8.620;2022-12-24T07:44:05;13.32;;;5.15;;
75858;SDS011;64504;51.308;8.620;2022-12-24T07:46:30;11.20;;;3.97;;
75858;SDS011;64504;51.308;8.620;2022-12-24T07:48:56;15.25;;;5.78;;
75858;SDS011;64504;51.308;8.620;2022-12-24T07:51:21;15.35;;;5.20;;
75858;SDS011;64504;51.308;8.620;2022-12-24T07:53:47;7.90;;;5.20;;
75858;SDS011;64504;51.308;8.620;2022-12-24T07:56:14;8.60;;;5.43;;
75858;SDS011;64504;51.308;8.620;2022-12-24T07:58:40;9.57;;;5.40;;
75858;SDS011;64504;51.308;8.620;2022-12-24T08:01:06;8.90;;;4.35;;
75858;SDS011;64504;51.308;8.620;2022-12-24T08:03:32;8.93;;;4.13;;
75858;SDS011;64504;51.308;8.620;2022-12-24T08:05:57;7.55;;;4.95;;
75858;SDS011;64504;51.308;8.620;2022-12-24T08:08:24;5.72;;;4.43;;
75858;SDS011;64504;51.308;8.620;2022-12-24T08:10:50;9.43;;;4.78;;
75858;SDS011;64504;51.308;8.620;2022-12-24T08:13:15;12.18;;;4.80;;
75858;SDS011;64504;51.308;8.620;2022-12-24T08:15:41;10.40;;;5.03;;
75858;SDS011;64504;51.308;8.620;2022-12-24T08:18:08;26.08;;;5.25;;
75858;SDS011;64504;51.308;8.620;2022-12-24T08:20:35;17.83;;;5.38;;
75858;SDS011;64504;51.308;8.620;2022-12-24T08:23:06;13.48;;;5.15;;
75858;SDS011;64504;51.308;8.620;2022-12-24T08:25:32;14.07;;;5.33;;
75858;SDS011;64504;51.308;8.620;2022-12-24T08:27:57;13.80;;;5.82;;
75858;SDS011;64504;51.308;8.620;2022-12-24T08:30:23;9.23;;;5.07;;
75858;SDS011;64504;51.308;8.620;2022-12-24T08:32:49;8.38;;;5.05;;
75858;SDS011;64504;51.308;8.620;2022-12-24T08:35:15;16.10;;;6.45;;
75858;SDS011;64504;51.308;8.620;2022-12-24T08:37:41;18.80;;;5.32;;
75858;SDS011;64504;51.308;8.620;2022-12-24T08:40:08;23.90;;;5.03;;
75858;SDS011;64504;51.308;8.620;2022-12-24T08:42:34;12.35;;;5.97;;
75858;SDS011;64504;51.308;8.620;2022-12-24T08:45:01;9.38;;;5.22;;
75858;SDS011;64504;51.308;8.620;2022-12-24T08:47:27;8.98;;;6.15;;
75858;SDS011;64504;51.308;8.620;2022-12-24T08:49:53;14.52;;;6.03;;
75858;SDS011;64504;51.308;8.620;2022-12-24T08:52:19;13.00;;;6.25;;
75858;SDS011;64504;51.308;8.620;2022-12-24T08:54:44;15.55;;;6.80;;
75858;SDS011;64504;51.308;8.620;2022-12-24T08:57:10;16.02;;;7.80;;
75858;SDS011;64504;51.308;8.620;2022-12-24T08:59:35;20.50;;;7.07;;
75858;SDS011;64504;51.308;8.620;2022-12-24T09:02:01;10.50;;;5.95;;
75858;SDS011;64504;51.308;8.620;2022-12-24T09:04:29;10.23;;;6.70;;
75858;SDS011;64504;51.308;8.620;2022-12-24T09:06:54;8.98;;;6.45;;
75858;SDS011;64504;51.308;8.620;2022-12-24T09:09:20;13.93;;;7.35;;
75858;SDS011;64504;51.308;8.620;2022-12-24T09:11:45;9.63;;;6.78;;
75858;SDS011;64504;51.308;8.620;2022-12-24T09:14:11;9.02;;;6.65;;
75858;SDS011;64504;51.308;8.620;2022-12-24T09:16:37;11.60;;;6.93;;
75858;SDS011;64504;51.308;8.620;2022-12-24T09:19:03;19.65;;;6.50;;
75858;SDS011;64504;51.308;8.620;2022-12-24T09:21:29;14.88;;;6.72;;
75858;SDS011;64504;51.308;8.620;2022-12-24T09:23:56;18.38;;;8.15;;
75858;SDS011;64504;51.308;8.620;2022-12-24T09:26:23;19.60;;;8.10;;
75858;SDS011;64504;51.308;8.620;2022-12-24T09:28:49;11.25;;;6.50;;
75858;SDS011;64504;51.308;8.620;2022-12-24T09:31:18;15.05;;;8.32;;
75858;SDS011;64504;51.308;8.620;2022-12-24T09:33:44;12.73;;;7.22;;
75858;SDS011;64504;51.308;8.620;2022-12-24T09:36:12;14.57;;;7.90;;
75858;SDS011;64504;51.308;8.620;2022-12-24T09:38:38;12.70;;;7.30;;
75858;SDS011;64504;51.308;8.620;2022-12-24T09:41:11;18.73;;;7.18;;
75858;SDS011;64504;51.308;8.620;2022-12-24T09:43:37;10.70;;;7.60;;
75858;SDS011;64504;51.308;8.620;2022-12-24T09:48:54;22.17;;;6.93;;
75858;SDS011;64504;51.308;8.620;2022-12-24T09:51:30;22.13;;;8.23;;
75858;SDS011;64504;51.308;8.620;2022-12-24T09:54:08;13.40;;;6.75;;
75858;SDS011;64504;51.308;8.620;2022-12-24T09:56:46;25.45;;;8.82;;
75858;SDS011;64504;51.308;8.620;2022-12-24T09:59:13;18.08;;;8.15;;
75858;SDS011;64504;51.308;8.620;2022-12-24T10:01:40;15.18;;;8.07;;
75858;SDS011;64504;51.308;8.620;2022-12-24T10:04:09;20.00;;;7.13;;
75858;SDS011;64504;51.308;8.620;2022-12-24T10:06:39;22.75;;;7.78;;
75858;SDS011;64504;51.308;8.620;2022-12-24T10:09:30;13.90;;;7.60;;
75858;SDS011;64504;51.308;8.620;2022-12-24T10:12:07;20.65;;;7.28;;
75858;SDS011;64504;51.308;8.620;2022-12-24T10:28:44;22.38;;;7.85;;
75858;SDS011;64504;51.308;8.620;2022-12-24T10:31:12;13.52;;;7.03;;
75858;SDS011;64504;51.308;8.620;2022-12-24T10:33:42;14.02;;;6.28;;
75858;SDS011;64504;51.308;8.620;2022-12-24T10:36:15;18.23;;;6.97;;
75858;SDS011;64504;51.308;8.620;2022-12-24T10:38:43;20.52;;;7.88;;
75858;SDS011;64504;51.308;8.620;2022-12-24T10:41:09;14.80;;;4.50;;
75858;SDS011;64504;51.308;8.620;2022-12-24T10:43:35;7.07;;;5.95;;
75858;SDS011;64504;51.308;8.620;2022-12-24T10:46:05;11.38;;;5.68;;
75858;SDS011;64504;51.308;8.620;2022-12-24T10:48:57;14.50;;;5.95;;
75858;SDS011;64504;51.308;8.620;2022-12-24T10:53:51;9.33;;;6.27;;
75858;SDS011;64504;51.308;8.620;2022-12-24T10:56:27;18.60;;;6.22;;
75858;SDS011;64504;51.308;8.620;2022-12-24T10:58:53;18.58;;;5.78;;
75858;SDS011;64504;51.308;8.620;2022-12-24T11:01:19;7.47;;;4.82;;
75858;SDS011;64504;51.308;8.620;2022-12-24T11:03:50;11.48;;;4.93;;
75858;SDS011;64504;51.308;8.620;2022-12-24T11:06:24;17.33;;;6.43;;
75858;SDS011;64504;51.308;8.620;2022-12-24T11:08:49;7.38;;;5.28;;
75858;SDS011;64504;51.308;8.620;2022-12-24T11:11:15;19.92;;;6.78;;
75858;SDS011;64504;51.308;8.620;2022-12-24T11:13:43;9.68;;;5.25;;
75858;SDS011;64504;51.308;8.620;2022-12-24T11:16:19;11.05;;;5.43;;
75858;SDS011;64504;51.308;8.620;2022-12-24T11:19:16;18.90;;;5.22;;
75858;SDS011;64504;51.308;8.620;2022-12-24T11:21:43;19.10;;;5.55;;
75858;SDS011;64504;51.308;8.620;2022-12-24T11:26:38;12.38;;;4.65;;
75858;SDS011;64504;51.308;8.620;2022-12-24T11:31:37;18.23;;;5.70;;
75858;SDS011;64504;51.308;8.620;2022-12-24T11:34:50;21.58;;;7.70;;
75858;SDS011;64504;51.308;8.620;2022-12-24T11:36:53;21.67;;;6.22;;
75858;SDS011;64504;51.308;8.620;2022-12-24T11:39:21;16.88;;;5.80;;
75858;SDS011;64504;51.308;8.620;2022-12-24T11:41:48;28.88;;;6.43;;
75858;SDS011;64504;51.308;8.620;2022-12-24T11:44:26;15.32;;;6.30;;
75858;SDS011;64504;51.308;8.620;2022-12-24T11:46:54;13.93;;;6.35;;
75858;SDS011;64504;51.308;8.620;2022-12-24T11:49:24;12.52;;;5.50;;
75858;SDS011;64504;51.308;8.620;2022-12-24T11:57:52;16.63;;;6.63;;
75858;SDS011;64504;51.308;8.620;2022-12-24T12:00:21;14.05;;;5.47;;
75858;SDS011;64504;51.308;8.620;2022-12-24T12:02:47;7.75;;;4.30;;
75858;SDS011;64504;51.308;8.620;2022-12-24T12:05:18;13.25;;;4.97;;
75858;SDS011;64504;51.308;8.620;2022-12-24T12:07:47;15.35;;;5.38;;
75858;SDS011;64504;51.308;8.620;2022-12-24T12:15:33;15.07;;;6.82;;
75858;SDS011;64504;51.308;8.620;2022-12-24T12:18:10;18.63;;;7.45;;
75858;SDS011;64504;51.308;8.620;2022-12-24T12:20:44;20.45;;;6.35;;
75858;SDS011;64504;51.308;8.620;2022-12-24T12:23:25;7.40;;;4.43;;
75858;SDS011;64504;51.308;8.620;2022-12-24T12:25:56;14.05;;;6.60;;
75858;SDS011;64504;51.308;8.620;2022-12-24T12:33:49;13.13;;;6.80;;
75858;SDS011;64504;51.308;8.620;2022-12-24T12:36:25;21.27;;;6.65;;
75858;SDS011;64504;51.308;8.620;2022-12-24T12:38:55;22.25;;;8.13;;
75858;SDS011;64504;51.308;8.620;2022-12-24T12:41:32;9.02;;;6.88;;
75858;SDS011;64504;51.308;8.620;2022-12-24T12:46:53;24.65;;;7.57;;
75858;SDS011;64504;51.308;8.620;2022-12-24T12:49:26;27.38;;;8.52;;
75858;SDS011;64504;51.308;8.620;2022-12-24T12:52:12;15.25;;;8.23;;
75858;SDS011;64504;51.308;8.620;2022-12-24T12:55:17;11.05;;;5.90;;
75858;SDS011;64504;51.308;8.620;2022-12-24T12:57:45;12.32;;;7.35;;
75858;SDS011;64504;51.308;8.620;2022-12-24T13:00:12;18.52;;;7.10;;
75858;SDS011;64504;51.308;8.620;2022-12-24T13:22:31;21.95;;;7.25;;
75858;SDS011;64504;51.308;8.620;2022-12-24T13:24:56;15.27;;;7.15;;
75858;SDS011;64504;51.308;8.620;2022-12-24T13:27:22;14.18;;;7.25;;
75858;SDS011;64504;51.308;8.620;2022-12-24T13:29:54;19.95;;;6.20;;
75858;SDS011;64504;51.308;8.620;2022-12-24T13:37:21;30.58;;;7.57;;
75858;SDS011;64504;51.308;8.620;2022-12-24T13:50:49;18.33;;;6.80;;
75858;SDS011;64504;51.308;8.620;2022-12-24T13:56:00;25.00;;;7.28;;
75858;SDS011;64504;51.308;8.620;2022-12-24T13:58:29;26.05;;;7.18;;
75858;SDS011;64504;51.308;8.620;2022-12-24T14:03:32;23.10;;;7.82;;
75858;SDS011;64504;51.308;8.620;2022-12-24T14:11:00;13.70;;;7.22;;
75858;SDS011;64504;51.308;8.620;2022-12-24T14:18:39;16.75;;;5.28;;
75858;SDS011;64504;51.308;8.620;2022-12-24T14:21:11;13.40;;;5.50;;
75858;SDS011;64504;51.308;8.620;2022-12-24T14:23:46;6.78;;;4.82;;
75858;SDS011;64504;51.308;8.620;2022-12-24T14:26:17;13.75;;;6.10;;
75858;SDS011;64504;51.308;8.620;2022-12-24T14:29:04;36.03;;;5.93;;
75858;SDS011;64504;51.308;8.620;2022-12-24T14:31:31;12.57;;;5.63;;
75858;SDS011;64504;51.308;8.620;2022-12-24T14:34:10;17.88;;;5.95;;
75858;SDS011;64504;51.308;8.620;2022-12-24T14:36:37;10.98;;;4.80;;
75858;SDS011;64504;51.308;8.620;2022-12-24T14:39:04;25.33;;;5.85;;
75858;SDS011;64504;51.308;8.620;2022-12-24T14:46:55;17.17;;;7.03;;
75858;SDS011;64504;51.308;8.620;2022-12-24T14:54:36;17.80;;;7.15;;
75858;SDS011;64504;51.308;8.620;2022-12-24T14:59:42;19.67;;;7.38;;
75858;SDS011;64504;51.308;8.620;2022-12-24T15:07:59;10.63;;;6.07;;
75858;SDS011;64504;51.308;8.620;2022-12-24T15:10:29;16.05;;;6.40;;
75858;SDS011;64504;51.308;8.620;2022-12-24T15:13:00;18.00;;;6.53;;
75858;SDS011;64504;51.308;8.620;2022-12-24T15:15:28;23.55;;;7.75;;
75858;SDS011;64504;51.308;8.620;2022-12-24T15:17:53;11.80;;;6.38;;
75858;SDS011;64504;51.308;8.620;2022-12-24T15:20:20;17.48;;;6.47;;
75858;SDS011;64504;51.308;8.620;2022-12-24T15:22:51;12.50;;;4.53;;
75858;SDS011;64504;51.308;8.620;2022-12-24T15:25:27;15.10;;;6.95;;
75858;SDS011;64504;51.308;8.620;2022-12-24T15:27:54;16.00;;;6.30;;
75858;SDS011;64504;51.308;8.620;2022-12-24T15:30:21;23.50;;;7.25;;
75858;SDS011;64504;51.308;8.620;2022-12-24T15:32:49;29.25;;;6.95;;
75858;SDS011;64504;51.308;8.620;2022-12-24T15:35:32;17.77;;;6.10;;
75858;SDS011;64504;51.308;8.620;2022-12-24T15:38:00;12.95;;;6.18;;
75858;SDS011;64504;51.308;8.620;2022-12-24T15:40:27;18.23;;;4.82;;
75858;SDS011;64504;51.308;8.620;2022-12-24T15:42:53;24.17;;;5.93;;
75858;SDS011;64504;51.308;8.620;2022-12-24T15:52:42;17.40;;;6.63;;
75858;SDS011;64504;51.308;8.620;2022-12-24T15:55:28;10.80;;;5.53;;
75858;SDS011;64504;51.308;8.620;2022-12-24T15:57:58;25.42;;;6.60;;
75858;SDS011;64504;51.308;8.620;2022-12-24T16:00:25;20.20;;;7.70;;
75858;SDS011;64504;51.308;8.620;2022-12-24T16:03:10;14.57;;;6.88;;
75858;SDS011;64504;51.308;8.620;2022-12-24T16:05:42;15.23;;;6.40;;
75858;SDS011;64504;51.308;8.620;2022-12-24T16:10:48;18.77;;;6.63;;
75858;SDS011;64504;51.308;8.620;2022-12-24T16:13:20;32.40;;;8.75;;
75858;SDS011;64504;51.308;8.620;2022-12-24T16:15:48;25.70;;;6.63;;
75858;SDS011;64504;51.308;8.620;2022-12-24T16:18:26;19.75;;;8.38;;
75858;SDS011;64504;51.308;8.620;2022-12-24T16:20:56;23.05;;;7.38;;
75858;SDS011;64504;51.308;8.620;2022-12-24T16:23:22;29.75;;;8.57;;
75858;SDS011;64504;51.308;8.620;2022-12-24T16:25:50;15.63;;;7.72;;
75858;SDS011;64504;51.308;8.620;2022-12-24T16:28:18;9.73;;;7.50;;
75858;SDS011;64504;51.308;8.620;2022-12-24T16:30:46;8.00;;;5.70;;
75858;SDS011;64504;51.308;8.620;2022-12-24T16:33:15;28.40;;;7.10;;
75858;SDS011;64504;51.308;8.620;2022-12-24T16:35:42;18.65;;;6.43;;
75858;SDS011;64504;51.308;8.620;2022-12-24T16:38:10;15.05;;;7.13;;
75858;SDS011;64504;51.308;8.620;2022-12-24T16:40:38;13.85;;;7.70;;
75858;SDS011;64504;51.308;8.620;2022-12-24T16:43:07;18.60;;;7.10;;
75858;SDS011;64504;51.308;8.620;2022-12-24T16:45:51;29.90;;;7.65;;
75858;SDS011;64504;51.308;8.620;2022-12-24T16:48:21;27.67;;;8.27;;
75858;SDS011;64504;51.308;8.620;2022-12-24T16:50:49;14.95;;;6.80;;
75858;SDS011;64504;51.308;8.620;2022-12-24T16:53:21;15.60;;;7.53;;
75858;SDS011;64504;51.308;8.620;2022-12-24T16:55:47;27.05;;;8.15;;
75858;SDS011;64504;51.308;8.620;2022-12-24T16:58:15;19.67;;;6.75;;
75858;SDS011;64504;51.308;8.620;2022-12-24T17:00:41;10.57;;;7.40;;
75858;SDS011;64504;51.308;8.620;2022-12-24T17:03:07;19.95;;;7.85;;
75858;SDS011;64504;51.308;8.620;2022-12-24T17:05:37;24.75;;;8.85;;
75858;SDS011;64504;51.308;8.620;2022-12-24T17:08:04;18.48;;;8.68;;
75858;SDS011;64504;51.308;8.620;2022-12-24T17:10:29;25.35;;;10.85;;
75858;SDS011;64504;51.308;8.620;2022-12-24T17:12:55;25.30;;;11.02;;
75858;SDS011;64504;51.308;8.620;2022-12-24T17:15:20;29.05;;;10.52;;
75858;SDS011;64504;51.308;8.620;2022-12-24T17:17:46;10.40;;;9.07;;